sensor_id;sensor_type;location;lat;lon;timestamp;P1;durP1;ratioP1;P2;durP2;ratioP2
46597;SDS011;32318;48.858;8.252;2023-02-01T00:02:46;16.65;;;7.25;;
46597;SDS011;32318;48.858;8.252;2023-02-01T00:10:46;18.13;;;6.55;;
46597;SDS011;32318;48.858;8.252;2023-02-01T00:18:47;18.75;;;6.55;;
46597;SDS011;32318;48.858;8.252;2023-02-01T00:26:50;12.85;;;5.38;;
46597;SDS011;32318;48.858;8.252;2023-02-01T00:34:50;12.32;;;5.28;;
46597;SDS011;32318;48.858;8.252;2023-02-01T00:42:50;12.65;;;5.32;;
46597;SDS011;32318;48.858;8.252;2023-02-01T00:50:50;11.07;;;5.32;;
46597;SDS011;32318;48.858;8.252;2023-02-01T00:58:51;14.98;;;6.10;;
46597;SDS011;32318;48.858;8.252;2023-02-01T01:06:51;15.52;;;5.70;;
46597;SDS011;32318;48.858;8.252;2023-02-01T01:14:51;10.48;;;5.30;;
46597;SDS011;32318;48.858;8.252;2023-02-01T01:22:51;11.85;;;5.85;;
46597;SDS011;32318;48.858;8.252;2023-02-01T01:30:52;12.57;;;5.65;;
46597;SDS011;32318;48.858;8.252;2023-02-01T01:38:52;11.88;;;5.60;;
46597;SDS011;32318;48.858;8.252;2023-02-01T01:46:52;14.85;;;6.45;;
46597;SDS011;32318;48.858;8.252;2023-02-01T01:54:53;14.93;;;5.82;;
46597;SDS011;32318;48.858;8.252;2023-02-01T02:03:07;12.93;;;6.10;;
46597;SDS011;32318;48.858;8.252;2023-02-01T02:11:14;11.40;;;6.15;;
46597;SDS011;32318;48.858;8.252;2023-02-01T02:44:44;10.70;;;5.30;;
46597;SDS011;32318;48.858;8.252;2023-02-01T02:53:16;14.43;;;6.18;;
46597;SDS011;32318;48.858;8.252;2023-02-01T03:01:39;15.30;;;6.68;;
46597;SDS011;32318;48.858;8.252;2023-02-01T03:10:03;12.93;;;5.95;;
46597;SDS011;32318;48.858;8.252;2023-02-01T03:18:11;12.88;;;5.30;;
46597;SDS011;32318;48.858;8.252;2023-02-01T03:26:16;13.60;;;6.00;;
46597;SDS011;32318;48.858;8.252;2023-02-01T03:34:18;14.50;;;5.80;;
46597;SDS011;32318;48.858;8.252;2023-02-01T03:42:20;11.68;;;4.80;;
46597;SDS011;32318;48.858;8.252;2023-02-01T03:50:27;9.77;;;4.35;;
46597;SDS011;32318;48.858;8.252;2023-02-01T03:58:29;10.57;;;4.13;;
46597;SDS011;32318;48.858;8.252;2023-02-01T04:06:29;8.73;;;4.00;;
46597;SDS011;32318;48.858;8.252;2023-02-01T04:14:30;9.10;;;3.77;;
46597;SDS011;32318;48.858;8.252;2023-02-01T04:22:30;5.60;;;2.88;;
46597;SDS011;32318;48.858;8.252;2023-02-01T04:30:30;5.43;;;2.55;;
46597;SDS011;32318;48.858;8.252;2023-02-01T04:38:31;8.60;;;3.67;;
46597;SDS011;32318;48.858;8.252;2023-02-01T04:46:32;6.03;;;2.80;;
46597;SDS011;32318;48.858;8.252;2023-02-01T04:54:32;9.60;;;3.63;;
46597;SDS011;32318;48.858;8.252;2023-02-01T05:02:32;12.57;;;3.70;;
46597;SDS011;32318;48.858;8.252;2023-02-01T05:10:33;7.22;;;3.08;;
46597;SDS011;32318;48.858;8.252;2023-02-01T05:18:33;9.55;;;3.50;;
46597;SDS011;32318;48.858;8.252;2023-02-01T05:26:37;7.10;;;3.90;;
46597;SDS011;32318;48.858;8.252;2023-02-01T05:34:37;10.00;;;4.00;;
46597;SDS011;32318;48.858;8.252;2023-02-01T05:42:38;10.38;;;3.88;;
46597;SDS011;32318;48.858;8.252;2023-02-01T05:50:38;11.50;;;4.28;;
46597;SDS011;32318;48.858;8.252;2023-02-01T05:58:38;12.90;;;4.00;;
46597;SDS011;32318;48.858;8.252;2023-02-01T06:06:39;11.55;;;4.10;;
46597;SDS011;32318;48.858;8.252;2023-02-01T06:14:39;12.75;;;5.53;;
46597;SDS011;32318;48.858;8.252;2023-02-01T06:22:40;11.18;;;4.72;;
46597;SDS011;32318;48.858;8.252;2023-02-01T06:30:40;9.00;;;4.05;;
46597;SDS011;32318;48.858;8.252;2023-02-01T06:38:43;14.73;;;4.43;;
46597;SDS011;32318;48.858;8.252;2023-02-01T06:46:43;11.43;;;4.55;;
46597;SDS011;32318;48.858;8.252;2023-02-01T06:54:43;12.07;;;5.07;;
46597;SDS011;32318;48.858;8.252;2023-02-01T07:02:43;8.20;;;3.38;;
46597;SDS011;32318;48.858;8.252;2023-02-01T07:10:44;11.25;;;3.50;;
46597;SDS011;32318;48.858;8.252;2023-02-01T07:18:44;10.70;;;3.58;;
46597;SDS011;32318;48.858;8.252;2023-02-01T07:26:45;8.20;;;3.58;;
46597;SDS011;32318;48.858;8.252;2023-02-01T07:34:47;6.00;;;3.30;;
46597;SDS011;32318;48.858;8.252;2023-02-01T07:42:48;7.43;;;2.72;;
46597;SDS011;32318;48.858;8.252;2023-02-01T07:50:48;9.38;;;3.85;;
46597;SDS011;32318;48.858;8.252;2023-02-01T07:58:57;7.53;;;2.97;;
46597;SDS011;32318;48.858;8.252;2023-02-01T08:06:59;5.60;;;2.88;;
46597;SDS011;32318;48.858;8.252;2023-02-01T08:15:00;7.43;;;3.08;;
46597;SDS011;32318;48.858;8.252;2023-02-01T08:23:00;7.78;;;3.20;;
46597;SDS011;32318;48.858;8.252;2023-02-01T08:31:04;6.85;;;2.92;;
46597;SDS011;32318;48.858;8.252;2023-02-01T08:39:09;10.68;;;3.05;;
46597;SDS011;32318;48.858;8.252;2023-02-01T08:47:10;8.23;;;2.85;;
46597;SDS011;32318;48.858;8.252;2023-02-01T08:55:11;7.68;;;2.63;;
46597;SDS011;32318;48.858;8.252;2023-02-01T09:03:12;11.95;;;2.90;;
46597;SDS011;32318;48.858;8.252;2023-02-01T09:11:14;15.10;;;3.60;;
46597;SDS011;32318;48.858;8.252;2023-02-01T09:19:16;10.68;;;2.80;;
46597;SDS011;32318;48.858;8.252;2023-02-01T09:27:16;12.75;;;2.97;;
46597;SDS011;32318;48.858;8.252;2023-02-01T09:35:17;14.98;;;3.47;;
46597;SDS011;32318;48.858;8.252;2023-02-01T09:43:20;16.20;;;3.88;;
46597;SDS011;32318;48.858;8.252;2023-02-01T09:51:33;13.05;;;3.45;;
46597;SDS011;32318;48.858;8.252;2023-02-01T09:59:41;10.75;;;3.53;;
46597;SDS011;32318;48.858;8.252;2023-02-01T10:24:20;19.40;;;4.50;;
46597;SDS011;32318;48.858;8.252;2023-02-01T10:32:23;13.13;;;4.00;;
46597;SDS011;32318;48.858;8.252;2023-02-01T10:40:28;16.08;;;3.05;;
46597;SDS011;32318;48.858;8.252;2023-02-01T10:48:29;16.77;;;3.20;;
46597;SDS011;32318;48.858;8.252;2023-02-01T10:56:30;11.38;;;2.88;;
46597;SDS011;32318;48.858;8.252;2023-02-01T11:04:33;22.30;;;3.95;;
46597;SDS011;32318;48.858;8.252;2023-02-01T11:12:36;13.85;;;3.38;;
46597;SDS011;32318;48.858;8.252;2023-02-01T11:20:38;13.35;;;3.55;;
46597;SDS011;32318;48.858;8.252;2023-02-01T11:28:40;10.35;;;2.70;;
46597;SDS011;32318;48.858;8.252;2023-02-01T11:36:49;8.77;;;2.80;;
46597;SDS011;32318;48.858;8.252;2023-02-01T11:44:50;15.95;;;5.13;;
46597;SDS011;32318;48.858;8.252;2023-02-01T12:17:33;11.57;;;3.47;;
46597;SDS011;32318;48.858;8.252;2023-02-01T12:25:51;16.05;;;3.35;;
46597;SDS011;32318;48.858;8.252;2023-02-01T12:34:00;21.58;;;4.13;;
46597;SDS011;32318;48.858;8.252;2023-02-01T12:42:17;14.93;;;3.20;;
46597;SDS011;32318;48.858;8.252;2023-02-01T12:50:27;19.08;;;4.68;;
46597;SDS011;32318;48.858;8.252;2023-02-01T12:58:43;18.60;;;4.20;;
46597;SDS011;32318;48.858;8.252;2023-02-01T13:06:49;17.20;;;4.28;;
46597;SDS011;32318;48.858;8.252;2023-02-01T13:14:58;16.42;;;4.32;;
46597;SDS011;32318;48.858;8.252;2023-02-01T13:31:35;23.05;;;4.60;;
46597;SDS011;32318;48.858;8.252;2023-02-01T13:39:52;15.27;;;4.28;;
46597;SDS011;32318;48.858;8.252;2023-02-01T13:47:58;14.85;;;3.28;;
46597;SDS011;32318;48.858;8.252;2023-02-01T13:56:02;20.80;;;3.60;;
46597;SDS011;32318;48.858;8.252;2023-02-01T14:21:25;45.55;;;9.23;;
46597;SDS011;32318;48.858;8.252;2023-02-01T14:29:37;30.83;;;4.47;;
46597;SDS011;32318;48.858;8.252;2023-02-01T14:37:39;22.60;;;4.60;;
46597;SDS011;32318;48.858;8.252;2023-02-01T14:53:39;25.63;;;4.72;;
46597;SDS011;32318;48.858;8.252;2023-02-01T15:01:54;25.45;;;4.05;;
46597;SDS011;32318;48.858;8.252;2023-02-01T15:09:57;25.02;;;4.88;;
46597;SDS011;32318;48.858;8.252;2023-02-01T15:17:59;40.15;;;4.32;;
46597;SDS011;32318;48.858;8.252;2023-02-01T15:26:00;32.30;;;4.53;;
46597;SDS011;32318;48.858;8.252;2023-02-01T15:34:00;37.58;;;4.85;;
46597;SDS011;32318;48.858;8.252;2023-02-01T15:42:08;23.88;;;4.10;;
46597;SDS011;32318;48.858;8.252;2023-02-01T15:50:12;27.33;;;4.70;;
46597;SDS011;32318;48.858;8.252;2023-02-01T15:58:16;19.08;;;3.13;;
46597;SDS011;32318;48.858;8.252;2023-02-01T16:14:20;24.98;;;3.90;;
46597;SDS011;32318;48.858;8.252;2023-02-01T16:22:21;24.25;;;4.15;;
46597;SDS011;32318;48.858;8.252;2023-02-01T16:30:21;21.63;;;5.05;;
46597;SDS011;32318;48.858;8.252;2023-02-01T16:38:22;24.15;;;3.60;;
46597;SDS011;32318;48.858;8.252;2023-02-01T16:46:24;19.83;;;3.95;;
46597;SDS011;32318;48.858;8.252;2023-02-01T16:54:26;31.10;;;4.28;;
46597;SDS011;32318;48.858;8.252;2023-02-01T17:02:26;31.23;;;5.93;;
46597;SDS011;32318;48.858;8.252;2023-02-01T17:10:27;26.77;;;5.90;;
46597;SDS011;32318;48.858;8.252;2023-02-01T17:18:28;22.80;;;4.65;;
46597;SDS011;32318;48.858;8.252;2023-02-01T17:26:31;16.77;;;4.25;;
46597;SDS011;32318;48.858;8.252;2023-02-01T17:34:31;20.73;;;4.72;;
46597;SDS011;32318;48.858;8.252;2023-02-01T17:42:32;22.65;;;4.25;;
46597;SDS011;32318;48.858;8.252;2023-02-01T17:50:34;22.38;;;4.38;;
46597;SDS011;32318;48.858;8.252;2023-02-01T17:58:36;24.67;;;4.40;;
46597;SDS011;32318;48.858;8.252;2023-02-01T18:06:36;20.02;;;3.85;;
46597;SDS011;32318;48.858;8.252;2023-02-01T18:14:36;21.13;;;3.80;;
46597;SDS011;32318;48.858;8.252;2023-02-01T18:22:36;20.08;;;3.47;;
46597;SDS011;32318;48.858;8.252;2023-02-01T18:30:37;24.60;;;4.22;;
46597;SDS011;32318;48.858;8.252;2023-02-01T18:38:37;27.88;;;4.38;;
46597;SDS011;32318;48.858;8.252;2023-02-01T18:46:37;43.00;;;6.90;;
46597;SDS011;32318;48.858;8.252;2023-02-01T18:54:37;37.47;;;7.53;;
46597;SDS011;32318;48.858;8.252;2023-02-01T19:02:38;31.40;;;7.50;;
46597;SDS011;32318;48.858;8.252;2023-02-01T19:10:40;22.05;;;3.95;;
46597;SDS011;32318;48.858;8.252;2023-02-01T19:18:41;21.40;;;3.95;;
46597;SDS011;32318;48.858;8.252;2023-02-01T19:26:42;28.63;;;3.60;;
46597;SDS011;32318;48.858;8.252;2023-02-01T19:34:42;16.77;;;3.42;;
46597;SDS011;32318;48.858;8.252;2023-02-01T19:42:43;24.60;;;3.95;;
46597;SDS011;32318;48.858;8.252;2023-02-01T19:50:43;19.75;;;3.47;;
46597;SDS011;32318;48.858;8.252;2023-02-01T19:58:44;25.60;;;3.92;;
46597;SDS011;32318;48.858;8.252;2023-02-01T20:06:45;26.48;;;3.25;;
46597;SDS011;32318;48.858;8.252;2023-02-01T20:14:49;23.85;;;3.65;;
46597;SDS011;32318;48.858;8.252;2023-02-01T20:22:50;11.55;;;2.80;;
46597;SDS011;32318;48.858;8.252;2023-02-01T20:30:51;21.08;;;3.83;;
46597;SDS011;32318;48.858;8.252;2023-02-01T20:38:54;20.92;;;3.85;;
46597;SDS011;32318;48.858;8.252;2023-02-01T20:46:55;31.60;;;4.13;;
46597;SDS011;32318;48.858;8.252;2023-02-01T20:54:55;14.43;;;3.05;;
46597;SDS011;32318;48.858;8.252;2023-02-01T21:02:56;18.33;;;3.33;;
46597;SDS011;32318;48.858;8.252;2023-02-01T21:10:57;19.20;;;3.40;;
46597;SDS011;32318;48.858;8.252;2023-02-01T21:19:00;13.88;;;3.28;;
46597;SDS011;32318;48.858;8.252;2023-02-01T21:27:01;23.70;;;4.82;;
46597;SDS011;32318;48.858;8.252;2023-02-01T21:35:02;27.90;;;3.95;;
46597;SDS011;32318;48.858;8.252;2023-02-01T21:43:03;12.40;;;3.20;;
46597;SDS011;32318;48.858;8.252;2023-02-01T21:51:03;24.20;;;3.58;;
46597;SDS011;32318;48.858;8.252;2023-02-01T21:59:04;19.38;;;3.53;;
46597;SDS011;32318;48.858;8.252;2023-02-01T22:07:05;21.83;;;3.35;;
46597;SDS011;32318;48.858;8.252;2023-02-01T22:15:06;22.30;;;3.03;;
46597;SDS011;32318;48.858;8.252;2023-02-01T22:23:07;19.67;;;3.00;;
46597;SDS011;32318;48.858;8.252;2023-02-01T22:31:07;28.30;;;3.72;;
46597;SDS011;32318;48.858;8.252;2023-02-01T22:39:08;22.80;;;2.88;;
46597;SDS011;32318;48.858;8.252;2023-02-01T22:47:09;22.63;;;3.53;;
46597;SDS011;32318;48.858;8.252;2023-02-01T22:55:09;24.33;;;3.70;;
46597;SDS011;32318;48.858;8.252;2023-02-01T23:03:10;26.52;;;3.78;;
46597;SDS011;32318;48.858;8.252;2023-02-01T23:11:10;26.17;;;4.00;;
46597;SDS011;32318;48.858;8.252;2023-02-01T23:19:10;23.20;;;3.58;;
46597;SDS011;32318;48.858;8.252;2023-02-01T23:27:11;13.52;;;3.17;;
46597;SDS011;32318;48.858;8.252;2023-02-01T23:35:11;22.23;;;3.53;;
46597;SDS011;32318;48.858;8.252;2023-02-01T23:43:11;22.38;;;3.80;;
46597;SDS011;32318;48.858;8.252;2023-02-01T23:51:30;19.25;;;3.47;;
46597;SDS011;32318;48.858;8.252;2023-02-01T23:59:31;15.43;;;3.55;;
